createdAt,value
2023-11-12T00:00:20.892Z,8.88
2023-11-12T00:05:25.990Z,6.18
2023-11-12T00:10:29.803Z,10.68
2023-11-12T00:15:33.681Z,7.65
2023-11-12T00:20:38.769Z,7.93
2023-11-12T00:25:42.987Z,7.18
2023-11-12T00:30:49.260Z,9.73
2023-11-12T00:35:54.391Z,6.93
2023-11-12T00:40:58.182Z,6.38
2023-11-12T00:46:02.730Z,9.50
2023-11-12T00:51:07.945Z,6.32
2023-11-12T00:56:11.746Z,9.88
2023-11-12T01:01:15.761Z,7.35
2023-11-12T01:06:20.992Z,9.15
2023-11-12T01:11:25.826Z,10.65
2023-11-12T01:16:32.086Z,7.25
2023-11-12T01:21:37.350Z,7.83
2023-11-12T01:26:41.222Z,8.02
2023-11-12T01:31:46.580Z,8.68
2023-11-12T01:36:51.708Z,8.05
2023-11-12T01:41:55.373Z,6.90
2023-11-12T01:46:59.180Z,7.40
2023-11-12T01:52:05.515Z,11.73
2023-11-12T01:57:10.268Z,10.83
2023-11-12T02:02:14.580Z,8.85
2023-11-12T02:07:22.901Z,9.05
2023-11-12T02:12:26.811Z,6.63
2023-11-12T02:17:33.039Z,9.07
2023-11-12T02:22:38.169Z,7.57
2023-11-12T02:27:46.115Z,6.00
2023-11-12T02:32:50.019Z,7.18
2023-11-12T02:37:53.759Z,7.15
2023-11-12T02:42:58.839Z,7.65
2023-11-12T02:48:03.026Z,7.15
2023-11-12T02:53:08.769Z,7.70
2023-11-12T02:58:19.698Z,7.18
2023-11-12T03:03:23.526Z,6.00
2023-11-12T03:08:27.751Z,6.93
2023-11-12T03:13:33.121Z,5.55
2023-11-12T03:18:36.852Z,6.43
2023-11-12T03:23:41.648Z,7.07
2023-11-12T03:28:46.764Z,6.28
2023-11-12T03:33:50.482Z,5.85
2023-11-12T03:38:54.232Z,8.98
2023-11-12T03:43:59.429Z,6.70
2023-11-12T03:49:03.189Z,9.90
2023-11-12T03:54:07.670Z,7.32
2023-11-12T03:59:13.378Z,8.55
2023-11-12T04:04:17.741Z,7.70
2023-11-12T04:09:21.620Z,11.68
2023-11-12T04:14:26.702Z,9.73
2023-11-12T04:19:30.627Z,9.45
2023-11-12T04:24:35.183Z,8.80
2023-11-12T04:29:40.241Z,8.57
2023-11-12T04:34:44.606Z,11.45
2023-11-12T04:39:49.446Z,9.82
2023-11-12T04:44:54.589Z,10.05
2023-11-12T04:49:58.319Z,11.55
2023-11-12T04:55:02.001Z,13.77
2023-11-12T05:00:10.229Z,9.65
2023-11-12T05:05:14.961Z,16.00
2023-11-12T05:10:19.423Z,14.88
2023-11-12T05:15:24.462Z,15.65
2023-11-12T05:20:28.413Z,11.20
2023-11-12T05:25:32.427Z,11.63
2023-11-12T05:30:37.591Z,11.73
2023-11-12T05:35:41.557Z,15.10
2023-11-12T05:40:45.307Z,15.52
2023-11-12T05:45:50.387Z,17.17
2023-11-12T05:50:54.906Z,17.95
2023-11-12T05:55:58.579Z,18.48
2023-11-12T06:01:03.765Z,17.58
2023-11-12T06:06:07.606Z,26.48
2023-11-12T06:11:12.578Z,27.17
2023-11-12T06:16:17.759Z,23.65
2023-11-12T06:21:21.533Z,27.05
2023-11-12T06:26:25.279Z,24.25
2023-11-12T06:31:30.381Z,22.60
2023-11-12T06:36:34.107Z,27.75
2023-11-12T06:41:37.844Z,25.85
2023-11-12T06:46:47.256Z,28.35
2023-11-12T06:51:51.251Z,30.63
2023-11-12T06:56:55.764Z,19.92
2023-11-12T07:02:00.799Z,21.58
2023-11-12T07:07:13.649Z,26.67
2023-11-12T07:12:20.829Z,62.72
2023-11-12T07:17:25.868Z,19.10
2023-11-12T07:22:29.636Z,19.70
2023-11-12T07:27:33.493Z,40.10
2023-11-12T07:32:38.809Z,29.10
2023-11-12T07:37:43.312Z,28.13
2023-11-12T07:42:47.201Z,31.95
2023-11-12T07:47:52.594Z,22.30
2023-11-12T07:52:56.423Z,37.67
2023-11-12T07:58:00.527Z,17.70
2023-11-12T08:03:05.815Z,17.65
2023-11-12T08:08:09.961Z,18.73
2023-11-12T08:13:17.823Z,16.48
2023-11-12T08:18:23.077Z,20.98
2023-11-12T08:23:26.957Z,23.45
2023-11-12T08:28:30.738Z,16.73
2023-11-12T08:33:36.339Z,23.50
2023-11-12T08:38:40.146Z,15.13
2023-11-12T08:43:46.080Z,19.42
2023-11-12T08:48:51.138Z,14.52
2023-11-12T08:53:56.249Z,18.02
2023-11-12T08:59:00.327Z,18.73
2023-11-12T09:04:06.283Z,11.50
2023-11-12T09:09:10.466Z,14.20
2023-11-12T09:14:16.257Z,10.60
2023-11-12T09:19:21.764Z,13.35
2023-11-12T09:24:25.554Z,15.27
2023-11-12T09:29:30.031Z,18.38
2023-11-12T09:34:35.109Z,13.07
2023-11-12T09:39:38.945Z,15.30
2023-11-12T09:44:46.106Z,10.40
2023-11-12T09:49:55.157Z,12.77
2023-11-12T09:55:01.778Z,14.80
2023-11-12T10:00:08.154Z,11.43
2023-11-12T10:05:16.608Z,10.93
2023-11-12T10:10:25.706Z,12.45
2023-11-12T10:15:30.714Z,11.68
2023-11-12T10:20:40.808Z,13.60
2023-11-12T10:25:48.845Z,13.60
2023-11-12T10:30:56.257Z,17.63
2023-11-12T10:36:09.665Z,18.15
2023-11-12T10:41:14.022Z,13.50
2023-11-12T10:46:17.790Z,14.52
2023-11-12T10:51:23.796Z,13.75
2023-11-12T10:56:29.413Z,13.40
2023-11-12T11:01:35.242Z,13.07
2023-11-12T11:06:43.174Z,14.05
2023-11-12T11:11:50.423Z,12.43
2023-11-12T11:16:54.440Z,11.98
2023-11-12T11:22:30.779Z,15.00
2023-11-12T11:27:34.749Z,14.15
2023-11-12T11:32:39.344Z,17.30
2023-11-12T11:38:13.058Z,16.10
2023-11-12T11:43:39.415Z,13.48
2023-11-12T11:49:20.896Z,11.90
2023-11-12T11:54:27.190Z,13.43
2023-11-12T11:59:32.823Z,18.33
2023-11-12T12:04:45.639Z,14.85
2023-11-12T12:09:51.349Z,17.63
2023-11-12T12:14:56.083Z,22.30
2023-11-12T12:19:59.963Z,21.17
2023-11-12T12:25:05.716Z,15.15
2023-11-12T12:30:15.189Z,18.17
2023-11-12T12:35:23.718Z,14.40
2023-11-12T12:40:30.131Z,15.93
2023-11-12T12:45:35.735Z,19.02
2023-11-12T12:50:40.823Z,16.33
2023-11-12T12:55:47.534Z,17.17
2023-11-12T13:00:53.643Z,17.23
2023-11-12T13:05:58.874Z,19.33
2023-11-12T13:11:04.104Z,16.58
2023-11-12T13:16:11.812Z,16.35
2023-11-12T13:21:19.841Z,17.17
2023-11-12T13:26:25.361Z,20.02
2023-11-12T13:31:30.118Z,13.82
2023-11-12T13:36:33.989Z,19.85
2023-11-12T13:41:39.226Z,12.80
2023-11-12T13:46:44.145Z,16.15
2023-11-12T13:51:47.925Z,16.38
2023-11-12T13:56:53.338Z,10.63
2023-11-12T14:01:57.515Z,14.35
2023-11-12T14:07:01.483Z,13.93
2023-11-12T14:12:08.256Z,14.45
2023-11-12T14:17:12.666Z,12.95
2023-11-12T14:22:16.365Z,12.32
2023-11-12T14:27:21.597Z,12.18
2023-11-12T14:32:25.663Z,14.75
2023-11-12T14:37:30.276Z,10.60
2023-11-12T14:42:35.504Z,11.63
2023-11-12T14:47:41.942Z,10.98
2023-11-12T14:52:45.807Z,14.07
2023-11-12T14:57:50.951Z,10.80
2023-11-12T15:02:54.972Z,9.25
2023-11-12T15:08:01.011Z,12.10
2023-11-12T15:13:06.598Z,12.85
2023-11-12T15:18:11.495Z,8.02
2023-11-12T15:23:15.667Z,13.85
2023-11-12T15:28:20.964Z,9.43
2023-11-12T15:33:25.006Z,9.27
2023-11-12T15:38:29.116Z,10.15
2023-11-12T15:43:34.960Z,10.68
2023-11-12T15:48:38.905Z,10.77
2023-11-12T15:53:42.862Z,13.25
2023-11-12T15:58:47.926Z,18.42
2023-11-12T16:03:51.739Z,13.07
2023-11-12T16:08:56.828Z,15.73
2023-11-12T16:14:02.205Z,13.35
2023-11-12T16:19:06.123Z,10.20
2023-11-12T16:24:11.113Z,13.93
2023-11-12T16:29:16.286Z,16.50
2023-11-12T16:34:20.028Z,16.83
2023-11-12T16:39:24.039Z,17.63
2023-11-12T16:44:29.960Z,14.48
2023-11-12T16:49:33.823Z,14.05
2023-11-12T16:54:40.011Z,17.33
2023-11-12T16:59:45.255Z,13.03
2023-11-12T17:04:50.252Z,15.05
2023-11-12T17:09:55.152Z,16.92
2023-11-12T17:15:05.598Z,20.77
2023-11-12T17:20:12.565Z,19.70
2023-11-12T17:30:22.101Z,20.15
2023-11-12T17:35:25.828Z,19.67
2023-11-12T17:40:29.648Z,20.20
2023-11-12T17:45:34.769Z,18.80
2023-11-12T17:50:38.468Z,21.65
2023-11-12T17:55:44.688Z,17.02
2023-11-12T18:00:51.579Z,17.47
2023-11-12T18:05:56.064Z,22.02
2023-11-12T18:11:00.071Z,22.27
2023-11-12T18:16:05.902Z,20.75
2023-11-12T18:21:09.714Z,27.80
2023-11-12T18:26:15.633Z,23.70
2023-11-12T18:31:22.896Z,20.83
2023-11-12T18:36:26.783Z,24.13
2023-11-12T18:41:30.498Z,18.95
2023-11-12T18:46:35.881Z,21.92
2023-11-12T18:51:39.799Z,17.48
2023-11-12T18:56:43.641Z,18.60
2023-11-12T19:01:49.866Z,21.83
2023-11-12T19:06:54.144Z,19.27
2023-11-12T19:11:58.866Z,20.52
2023-11-12T19:17:04.832Z,14.60
2023-11-12T19:22:09.167Z,20.25
2023-11-12T19:27:15.382Z,17.25
2023-11-12T19:32:21.559Z,18.83
2023-11-12T19:37:25.384Z,17.20
2023-11-12T19:42:29.991Z,19.75
2023-11-12T19:47:40.443Z,17.83
2023-11-12T19:52:44.878Z,23.42
2023-11-12T19:57:54.182Z,16.42
2023-11-12T20:03:00.505Z,18.00
2023-11-12T20:08:05.610Z,17.73
2023-11-12T20:13:10.091Z,14.80
2023-11-12T20:18:15.446Z,16.25
2023-11-12T20:23:21.123Z,18.33
2023-11-12T20:28:25.199Z,19.98
2023-11-12T20:33:30.902Z,20.48
2023-11-12T20:38:42.079Z,15.52
2023-11-12T20:43:46.188Z,16.27
2023-11-12T20:48:55.679Z,17.63
2023-11-12T20:53:59.484Z,18.33
2023-11-12T20:59:03.940Z,15.90
2023-11-12T21:04:12.924Z,16.08
2023-11-12T21:09:19.415Z,15.18
2023-11-12T21:14:23.111Z,16.90
2023-11-12T21:19:28.312Z,13.90
2023-11-12T21:24:32.036Z,15.20
2023-11-12T21:29:36.553Z,11.35
2023-11-12T21:34:42.015Z,17.30
2023-11-12T21:39:45.789Z,10.95
2023-11-12T21:44:50.578Z,10.82
2023-11-12T21:49:59.112Z,12.10
2023-11-12T21:55:07.604Z,12.23
2023-11-12T22:00:13.459Z,11.40
2023-11-12T22:05:18.670Z,13.25
2023-11-12T22:10:22.507Z,14.05
2023-11-12T22:15:27.797Z,8.80
2023-11-12T22:20:36.267Z,9.93
2023-11-12T22:25:40.595Z,15.52
2023-11-12T22:30:44.593Z,8.95
2023-11-12T22:35:49.916Z,13.13
2023-11-12T22:40:54.429Z,9.00
2023-11-12T22:45:58.242Z,8.10
2023-11-12T22:51:03.809Z,8.00
2023-11-12T22:56:08.147Z,10.18
2023-11-12T23:01:15.076Z,14.93
2023-11-12T23:11:29.977Z,11.38
2023-11-12T23:16:34.352Z,9.35
2023-11-12T23:21:39.706Z,8.98
2023-11-12T23:26:43.831Z,8.40
2023-11-12T23:31:47.893Z,9.25
2023-11-12T23:36:53.062Z,10.05
2023-11-12T23:41:56.726Z,11.95
2023-11-12T23:47:00.477Z,9.57
2023-11-12T23:52:06.167Z,11.38
2023-11-12T23:57:10.785Z,9.05
